RORVIK/RYUM current weather conditions

sailwx.info

Wind from 240 at 13 knots

Air temperature 6.0° C
Visibility: greater than 5.4 NM
Dewpoint 3.0° C

Last reported at 2017-Jan-22 20:50 UTC.
Time now 2017-Jan-23 00:18 UTC

Location: N 64°50' E 011°08'.
View on Google Maps.

See reports from other nearby stations

  
Tides and Currents Weather Stations Pressure Air Temp Water Temp Dewpoint Dewpoint Depression Visibility Wind Speed Wind Dir Waves Ship Positions
date/time (UTC)wind fromknots sea level pressurealtimeterstation pressurevisibilityair tempwater tempwave heightnotes
2017-Jan-22 20:50 240 13 5.4 6.0
2017-Jan-22 20:20 230 12 5.4 6.0
2017-Jan-22 19:50 240 11 5.4 6.0
2017-Jan-22 19:20 240 13 5.4 6.0
2017-Jan-22 18:50 5.4 6.0
2017-Jan-22 18:20 250 15 5.4 6.0 Light rain showers.
2017-Jan-22 17:20 240 13 5.4 6.0
2017-Jan-22 16:20 240 14 5.4 6.0 Light rain showers.
2017-Jan-22 15:50 240 17 5.4 6.0 Showers in the vicinity.
2017-Jan-22 15:20 240 17 3.2 6.0 Rain showers.
2017-Jan-22 14:50 240 20 3.2 7.0 Rain showers.
2017-Jan-22 14:20 240 19 5.4 6.0 Rain showers.
2017-Jan-22 13:50 240 20 3.2 7.0 Rain showers.
2017-Jan-22 13:20 230 20 5.4 7.0 Rain showers.
2017-Jan-21 09:50 1.6 3.0 Mist. Drizzle rain.
2017-Jan-21 09:20 120 4 1.6 3.0 Mist. Drizzle rain.
2017-Jan-21 08:50 110 4 1.6 3.0 Mist. Drizzle rain.
2017-Jan-21 08:20 090 2 2.2 3.0 Mist. Drizzle rain.
2017-Jan-21 07:50 090 2 1.1 2.0 Mist. Drizzle rain.
2017-Jan-21 07:20 2.7 2.0 Light rain drizzle.
2017-Jan-21 06:50 040 1 3.8 1.0 Light rain drizzle.
2017-Jan-21 06:20 040 1 4.3 1.0 Light drizzle.
2017-Jan-21 05:50 040 1 5.4 1.0 Light drizzle.